Holts Summit, Missouri
Current Conditions -  °F | °C
As of 1:53 AM on Friday 31 Oct 2014 (Local Time) from KJEF Reporting Station
Broken Clouds Broken Clouds  
Wind Chill: 39°   Ceiling: 8500
Heat Index: 43°   Visibility: 10mi
Dew Point: 42°   Wind: 6mph
Humidity: 97%   Direction: 290°WNW
Pressure: 30.12"   Gusts: NA
Location:  38.64°N, 92.12°W
Report Text: KJEF 310653Z AUTO 29005KT 10SM BKN085 06/06 A3012 RMK AO2 SLP190 T00610056
Loading
Personal Weather Stations






























Interactive Weather Map
Tropical Storm Tracking
New forecast layout! Learn more

10-Day Weather Forecast

Advertisements
Track Severe Weather on mobile